Sand Springs, Oklahoma
Current Conditions -  °F | °C
As of 12:15 AM on Wednesday 22 Oct 2014 (Local Time) from KOWP Reporting Station
Clear Clear  
Wind Chill: 67°   Ceiling: Unl
Heat Index: 67°   Visibility: 10mi
Dew Point: 62°   Wind: 5mph
Humidity: 83%   Direction: 130°SE
Pressure: 30.08"   Gusts: NA
Location:  36.14°N, 96.11°W
Report Text: KOWP 220515Z AUTO 13004KT 10SM CLR 20/17 A3008 RMK AO2 T01960167
Loading
Personal Weather Stations






























Interactive Weather Map
Tropical Storm Tracking
New forecast layout! Learn more

10-Day Weather Forecast

Advertisements
Track Severe Weather on mobile